Time;durP1;ratioP1;P1;durP2;ratioP2;P2;SDS_P1;SDS_P2;PMS_P1;PMS_P2;Temp;Humidity;BMP_temperature;BMP_pressure;BME280_temperature;BME280_humidity;BME280_pressure;Samples;Min_cycle;Max_cycle;Signal;HPM_P1;HPM_P2
2022/01/14 00:01:51;;;;;;;27.90;13.87;;;2.50;1.00;;;;;;5031895;28;20460;-62
2022/01/14 00:04:18;;;;;;;26.37;13.63;;;2.50;1.00;;;;;;5032427;28;20956;-62
2022/01/14 00:06:46;;;;;;;30.20;13.90;;;2.40;1.00;;;;;;5032271;28;20449;-62
2022/01/14 00:09:14;;;;;;;32.30;14.87;;;2.40;1.00;;;;;;5032170;28;20502;-61
2022/01/14 00:11:45;;;;;;;32.60;14.83;;;2.40;1.00;;;;;;5032139;28;20999;-60
2022/01/14 00:14:22;;;;;;;27.97;13.77;;;2.40;1.00;;;;;;5031812;28;20534;-60
2022/01/14 00:16:50;;;;;;;24.40;13.20;;;2.40;1.00;;;;;;5032018;28;20455;-61
2022/01/14 00:19:17;;;;;;;26.23;13.00;;;2.40;1.00;;;;;;5031075;28;20558;-63
2022/01/14 00:21:44;;;;;;;29.37;14.40;;;2.40;1.00;;;;;;5032364;28;20483;-61
2022/01/14 00:24:24;;;;;;;21.70;12.07;;;2.40;1.00;;;;;;5031604;28;20453;-63
2022/01/14 00:32:26;;;;;;;27.40;12.97;;;2.30;1.00;;;;;;5031509;28;20568;-61
2022/01/14 00:34:52;;;;;;;28.20;13.80;;;2.30;1.00;;;;;;5031585;28;20495;-63
2022/01/14 00:37:19;;;;;;;24.83;13.77;;;2.30;1.00;;;;;;5031110;28;20507;-60
2022/01/14 00:39:47;;;;;;;28.43;14.80;;;2.30;1.00;;;;;;5031525;28;20534;-59
2022/01/14 00:42:15;;;;;;;26.90;14.57;;;2.30;1.00;;;;;;5031438;28;20449;-63
2022/01/14 00:44:42;;;;;;;29.50;14.27;;;2.20;1.00;;;;;;5031648;28;20449;-63
2022/01/14 00:47:09;;;;;;;24.67;13.03;;;2.20;1.00;;;;;;5031386;28;20444;-61
2022/01/14 00:49:35;;;;;;;24.77;14.40;;;2.20;1.00;;;;;;5030958;28;20465;-62
2022/01/14 00:52:02;;;;;;;26.67;13.57;;;2.10;1.00;;;;;;5031709;28;20475;-59
2022/01/14 00:54:29;;;;;;;26.77;13.70;;;2.10;1.00;;;;;;5031492;28;20523;-63
2022/01/14 00:57:25;;;;;;;31.53;14.40;;;2.10;1.00;;;;;;5031457;28;20445;-57
2022/01/14 00:59:51;;;;;;;29.73;15.30;;;2.10;1.00;;;;;;5031152;28;20489;-58
2022/01/14 01:02:18;;;;;;;25.00;13.23;;;2.10;1.00;;;;;;5031141;28;20475;-59
2022/01/14 01:04:44;;;;;;;26.50;14.13;;;2.10;1.00;;;;;;5031432;28;20214;-59
2022/01/14 01:07:12;;;;;;;27.17;14.53;;;2.10;1.00;;;;;;5031241;28;21213;-61
2022/01/14 01:09:45;;;;;;;28.23;14.83;;;2.10;1.00;;;;;;5031202;28;20970;-60
2022/01/14 01:12:28;;;;;;;37.27;15.03;;;2.10;1.00;;;;;;5031522;28;20576;-58
2022/01/14 01:15:04;;;;;;;31.37;15.53;;;2.10;1.00;;;;;;5031730;28;20483;-60
2022/01/14 01:17:31;;;;;;;31.57;16.03;;;2.10;1.00;;;;;;5031155;28;20459;-58
2022/01/14 01:19:58;;;;;;;31.97;15.93;;;2.10;1.00;;;;;;5031622;28;20492;-61
2022/01/14 01:22:25;;;;;;;27.23;14.13;;;2.10;1.00;;;;;;5031015;28;20449;-61
2022/01/14 01:24:51;;;;;;;38.27;16.27;;;2.10;1.00;;;;;;5030980;28;20448;-63
2022/01/14 01:27:21;;;;;;;29.60;14.53;;;2.10;1.00;;;;;;5030786;28;20532;-62
2022/01/14 01:29:53;;;;;;;28.50;15.27;;;2.20;1.00;;;;;;5031241;28;20473;-61
2022/01/14 01:32:20;;;;;;;30.07;15.13;;;2.10;1.00;;;;;;5035191;28;20456;-62
2022/01/14 01:34:47;;;;;;;32.87;15.60;;;2.10;1.00;;;;;;5034964;28;20456;-61
2022/01/14 01:37:14;;;;;;;27.60;15.60;;;2.10;1.00;;;;;;5034627;28;20658;-62
2022/01/14 01:39:41;;;;;;;33.67;18.10;;;2.10;1.00;;;;;;5034028;28;20960;-63
2022/01/14 01:42:09;;;;;;;34.83;17.13;;;2.10;1.00;;;;;;5034652;28;21009;-64
2022/01/14 01:44:40;;;;;;;36.90;17.20;;;2.00;1.00;;;;;;5034861;28;20443;-64
2022/01/14 01:47:07;;;;;;;30.40;17.27;;;2.00;1.00;;;;;;5034780;28;20827;-61
2022/01/14 01:49:37;;;;;;;35.17;16.80;;;2.00;1.00;;;;;;5034457;28;20563;-63
2022/01/14 01:52:04;;;;;;;35.27;16.43;;;2.00;1.00;;;;;;5034303;28;20463;-60
2022/01/14 01:54:31;;;;;;;37.50;16.73;;;2.00;1.00;;;;;;5035070;28;20445;-63
2022/01/14 01:56:58;;;;;;;35.93;16.80;;;2.00;1.00;;;;;;5034556;28;20448;-63
2022/01/14 01:59:26;;;;;;;33.87;16.57;;;2.00;1.00;;;;;;5034536;28;20488;-61
2022/01/14 02:01:57;;;;;;;32.40;16.33;;;2.00;1.00;;;;;;5034516;28;20449;-61
2022/01/14 02:04:24;;;;;;;31.87;17.10;;;2.00;1.00;;;;;;5034311;28;20460;-59
2022/01/14 02:06:52;;;;;;;30.93;15.70;;;2.10;1.00;;;;;;5033790;28;20448;-63
2022/01/14 02:09:19;;;;;;;27.90;14.63;;;2.00;1.00;;;;;;5033941;28;20564;-61
2022/01/14 02:11:46;;;;;;;35.93;16.23;;;2.00;1.00;;;;;;5034171;28;20475;-61
2022/01/14 02:14:27;;;;;;;30.07;16.30;;;2.10;1.00;;;;;;5033883;28;20460;-63
2022/01/14 02:17:16;;;;;;;34.40;15.73;;;2.10;1.00;;;;;;5034021;28;20488;-62
2022/01/14 02:22:44;;;;;;;30.17;14.97;;;2.00;1.00;;;;;;5032982;28;20445;-61
2022/01/14 02:25:12;;;;;;;25.50;14.07;;;2.00;1.00;;;;;;5033690;28;20457;-64
2022/01/14 02:27:39;;;;;;;27.60;14.33;;;2.00;1.00;;;;;;5033631;28;20491;-60
2022/01/14 02:30:07;;;;;;;26.80;14.77;;;2.00;1.00;;;;;;5033737;28;20986;-63
2022/01/14 02:32:34;;;;;;;28.10;13.67;;;2.00;1.00;;;;;;5033539;28;20795;-63
2022/01/14 02:35:02;;;;;;;27.13;14.13;;;1.90;1.00;;;;;;5034078;28;20456;-61
2022/01/14 02:37:29;;;;;;;26.67;14.50;;;1.90;1.00;;;;;;5033539;28;20449;-61
2022/01/14 02:39:56;;;;;;;23.57;12.57;;;1.90;1.00;;;;;;5033823;28;20562;-63
2022/01/14 02:42:22;;;;;;;31.07;14.73;;;1.80;1.00;;;;;;5032799;28;20449;-61
2022/01/14 02:44:49;;;;;;;32.70;14.73;;;1.80;1.00;;;;;;5034141;28;20445;-61
2022/01/14 02:47:17;;;;;;;25.57;13.93;;;1.80;1.00;;;;;;5033719;28;20507;-64
2022/01/14 02:49:44;;;;;;;25.93;14.10;;;1.80;1.00;;;;;;5033338;28;20484;-61
2022/01/14 02:52:13;;;;;;;31.53;15.20;;;1.70;1.00;;;;;;5033522;28;20449;-61
2022/01/14 02:54:52;;;;;;;30.93;14.63;;;1.70;1.00;;;;;;5033021;28;20457;-60
2022/01/14 02:57:20;;;;;;;34.03;14.20;;;1.70;1.00;;;;;;5033432;28;20805;-63
2022/01/14 02:59:48;;;;;;;30.10;15.03;;;1.70;1.00;;;;;;5033148;28;20481;-61
2022/01/14 03:02:16;;;;;;;31.17;15.37;;;1.70;1.00;;;;;;5033364;28;20453;-58
2022/01/14 03:04:43;;;;;;;27.70;14.80;;;1.70;1.00;;;;;;5033174;28;20453;-60
2022/01/14 03:07:11;;;;;;;37.73;16.10;;;1.70;1.00;;;;;;5033023;28;21138;-59
2022/01/14 03:09:39;;;;;;;28.40;14.93;;;1.70;1.00;;;;;;5033290;28;20523;-59
2022/01/14 03:12:06;;;;;;;27.57;14.97;;;1.70;1.00;;;;;;5033237;28;20877;-60
2022/01/14 03:14:33;;;;;;;29.00;15.00;;;1.60;1.00;;;;;;5033354;28;20488;-57
2022/01/14 03:17:00;;;;;;;27.07;14.47;;;1.60;1.00;;;;;;5033086;28;20449;-59
2022/01/14 03:19:28;;;;;;;27.10;13.60;;;1.60;1.00;;;;;;5032676;28;20491;-59
2022/01/14 03:22:05;;;;;;;30.90;14.73;;;1.50;1.00;;;;;;5032739;28;20940;-61
2022/01/14 03:27:19;;;;;;;30.50;14.67;;;1.40;1.00;;;;;;5032825;28;20435;-60
2022/01/14 03:29:45;;;;;;;24.13;13.87;;;1.30;1.00;;;;;;5032499;28;20857;-60
2022/01/14 03:32:12;;;;;;;33.83;15.80;;;1.20;1.00;;;;;;5032568;28;20460;-58
2022/01/14 03:34:39;;;;;;;36.07;16.30;;;1.10;1.00;;;;;;5032395;28;20947;-59
2022/01/14 03:37:06;;;;;;;30.03;15.20;;;1.10;1.00;;;;;;5032779;28;20453;-58
2022/01/14 03:39:34;;;;;;;33.67;15.83;;;1.00;1.00;;;;;;5032490;28;20480;-61
2022/01/14 03:42:01;;;;;;;29.30;15.30;;;1.00;1.00;;;;;;5032968;28;20441;-61
2022/01/14 03:44:28;;;;;;;34.87;16.30;;;1.00;1.00;;;;;;5033075;28;20539;-59
2022/01/14 03:46:54;;;;;;;32.13;16.97;;;1.00;1.00;;;;;;5032144;28;20461;-59
2022/01/14 03:49:21;;;;;;;32.70;15.97;;;1.00;1.00;;;;;;5032503;28;20472;-61
2022/01/14 03:51:48;;;;;;;32.90;16.13;;;1.10;1.00;;;;;;5032740;28;20574;-63
2022/01/14 03:54:14;;;;;;;28.63;15.03;;;1.10;1.00;;;;;;5032263;28;20452;-59
2022/01/14 03:56:42;;;;;;;30.83;14.20;;;1.10;1.00;;;;;;5032078;28;20554;-61
2022/01/14 03:59:09;;;;;;;32.27;15.87;;;1.00;1.00;;;;;;5032121;28;20461;-61
2022/01/14 04:01:36;;;;;;;35.20;16.57;;;0.90;1.00;;;;;;5032279;28;21196;-59
2022/01/14 04:04:02;;;;;;;31.23;15.10;;;0.90;1.00;;;;;;5032398;28;20503;-57
2022/01/14 04:06:30;;;;;;;30.87;16.70;;;0.90;1.00;;;;;;5032286;28;20453;-60
2022/01/14 04:08:57;;;;;;;38.47;17.20;;;0.90;1.00;;;;;;5031983;28;20456;-60
2022/01/14 04:11:24;;;;;;;33.00;17.23;;;0.90;1.00;;;;;;5032048;28;20472;-61
2022/01/14 04:13:54;;;;;;;31.97;16.67;;;0.90;1.00;;;;;;5031719;28;20463;-60
2022/01/14 04:16:23;;;;;;;33.47;15.00;;;0.90;1.00;;;;;;5032172;28;20461;-61
2022/01/14 04:18:51;;;;;;;31.17;15.33;;;0.90;1.00;;;;;;5032168;28;20456;-61
2022/01/14 04:21:19;;;;;;;30.33;16.10;;;0.80;1.00;;;;;;5031719;28;20542;-60
2022/01/14 04:23:45;;;;;;;35.80;15.07;;;0.70;1.00;;;;;;5031951;28;20507;-59
2022/01/14 04:26:13;;;;;;;30.07;15.40;;;0.70;1.00;;;;;;5031387;28;20449;-61
2022/01/14 04:28:40;;;;;;;35.00;16.17;;;0.70;1.00;;;;;;5032123;28;20664;-59
2022/01/14 04:31:09;;;;;;;30.30;16.43;;;0.70;1.00;;;;;;5031791;28;20466;-64
2022/01/14 04:33:37;;;;;;;35.50;15.60;;;0.70;1.00;;;;;;5031433;28;20545;-63
2022/01/14 04:36:05;;;;;;;33.70;15.40;;;0.70;1.00;;;;;;5031614;28;20455;-64
2022/01/14 04:38:33;;;;;;;30.77;15.83;;;0.70;1.00;;;;;;5031997;28;20867;-64
2022/01/14 04:41:00;;;;;;;32.70;16.23;;;0.70;1.00;;;;;;5031259;28;20483;-64
2022/01/14 04:43:29;;;;;;;39.07;16.57;;;0.70;1.00;;;;;;5031397;28;20518;-61
2022/01/14 04:46:13;;;;;;;45.80;17.87;;;0.70;1.00;;;;;;5032115;28;20465;-58
2022/01/14 04:48:41;;;;;;;42.67;17.23;;;0.70;1.00;;;;;;5031676;28;20460;-59
2022/01/14 04:51:11;;;;;;;49.00;17.90;;;0.70;1.00;;;;;;5031866;28;20462;-53
2022/01/14 04:53:38;;;;;;;66.83;16.93;;;0.70;1.00;;;;;;5031983;28;21208;-58
2022/01/14 04:56:05;;;;;;;94.23;19.90;;;0.70;1.00;;;;;;5031350;28;20453;-59
2022/01/14 04:58:32;;;;;;;47.23;16.57;;;0.60;1.00;;;;;;5031560;28;20860;-59
2022/01/14 05:00:59;;;;;;;88.33;18.37;;;0.60;1.00;;;;;;5031204;28;20495;-57
2022/01/14 05:03:26;;;;;;;79.77;18.60;;;0.60;1.00;;;;;;5031683;28;20450;-60
2022/01/14 05:05:57;;;;;;;82.50;16.67;;;0.50;1.00;;;;;;5031148;28;20446;-63
2022/01/14 05:08:26;;;;;;;70.80;16.87;;;0.50;1.00;;;;;;5032072;28;20867;-59
2022/01/14 05:11:04;;;;;;;70.40;17.03;;;0.50;1.00;;;;;;5032378;28;20555;-62
2022/01/14 05:13:31;;;;;;;55.30;16.53;;;0.50;1.00;;;;;;5031329;28;20467;-59
2022/01/14 05:15:58;;;;;;;59.60;16.57;;;0.40;1.00;;;;;;5031834;28;20452;-60
2022/01/14 05:18:25;;;;;;;61.33;18.33;;;0.40;1.00;;;;;;5031384;28;20482;-59
2022/01/14 05:20:54;;;;;;;42.67;16.43;;;0.40;1.00;;;;;;5031232;28;20517;-60
2022/01/14 05:23:21;;;;;;;41.83;16.20;;;0.40;1.00;;;;;;5031119;28;20478;-60
2022/01/14 05:25:47;;;;;;;45.63;18.27;;;0.30;1.00;;;;;;5031178;28;20451;-59
2022/01/14 05:28:14;;;;;;;38.03;15.73;;;0.20;1.00;;;;;;5031154;28;20500;-62
2022/01/14 05:30:41;;;;;;;33.70;16.80;;;0.10;1.00;;;;;;5031133;28;20543;-59
2022/01/14 05:33:08;;;;;;;42.03;17.47;;;0.10;1.00;;;;;;5031231;28;20458;-56
2022/01/14 05:35:35;;;;;;;39.83;17.60;;;0.10;1.00;;;;;;5031385;28;20450;-57
2022/01/14 05:38:03;;;;;;;34.70;17.87;;;0.10;1.00;;;;;;5030992;28;20847;-62
2022/01/14 05:40:30;;;;;;;35.07;18.73;;;0.20;1.00;;;;;;5030621;28;20486;-61
2022/01/14 05:42:57;;;;;;;33.87;17.63;;;0.10;1.00;;;;;;5031184;28;20530;-60
2022/01/14 05:45:24;;;;;;;33.53;17.03;;;0.10;1.00;;;;;;5031124;28;20451;-59
2022/01/14 05:47:51;;;;;;;37.17;17.57;;;0.10;1.00;;;;;;5030955;28;20462;-60
2022/01/14 05:50:20;;;;;;;35.90;18.57;;;0.20;1.00;;;;;;5030866;28;21052;-61
2022/01/14 05:52:47;;;;;;;37.07;17.37;;;0.20;1.00;;;;;;5028325;28;20450;-62
2022/01/14 05:55:17;;;;;;;34.67;15.77;;;0.20;1.00;;;;;;5027442;28;20833;-63
2022/01/14 05:57:44;;;;;;;33.03;17.53;;;0.10;1.00;;;;;;5032236;28;20457;-60
2022/01/14 06:00:14;;;;;;;41.37;17.93;;;0.10;1.00;;;;;;5030327;28;20492;-59
2022/01/14 06:02:41;;;;;;;38.40;18.70;;;0.00;1.00;;;;;;5030687;28;20449;-61
2022/01/14 06:05:08;;;;;;;31.07;16.57;;;0.00;1.00;;;;;;5030399;28;20457;-62
2022/01/14 06:07:35;;;;;;;37.00;18.40;;;0.00;1.00;;;;;;5030139;28;20445;-62
2022/01/14 06:10:01;;;;;;;33.07;17.27;;;0.10;1.00;;;;;;5030054;28;20524;-62
2022/01/14 06:12:29;;;;;;;32.60;17.23;;;0.10;1.00;;;;;;5030213;28;20674;-62
2022/01/14 06:14:56;;;;;;;41.03;17.50;;;0.20;1.00;;;;;;5030348;28;20868;-62
2022/01/14 06:17:24;;;;;;;36.97;17.00;;;0.20;1.00;;;;;;5030207;28;20460;-62
2022/01/14 06:19:50;;;;;;;35.37;17.33;;;0.20;1.00;;;;;;5033885;28;20525;-62
2022/01/14 06:22:17;;;;;;;31.57;16.60;;;0.20;1.00;;;;;;5035874;28;20550;-62
2022/01/14 06:24:44;;;;;;;29.40;15.70;;;0.30;1.00;;;;;;5034005;28;21008;-62
2022/01/14 06:27:10;;;;;;;34.13;16.13;;;0.30;1.00;;;;;;5033261;28;20945;-62
2022/01/14 06:29:38;;;;;;;35.83;16.10;;;0.30;1.00;;;;;;5034655;28;20847;-63
2022/01/14 06:32:07;;;;;;;32.10;16.67;;;0.30;1.00;;;;;;5030517;28;20481;-66
2022/01/14 06:34:33;;;;;;;29.73;15.77;;;0.30;1.00;;;;;;5033681;28;20546;-66
2022/01/14 06:37:00;;;;;;;33.73;16.07;;;0.20;1.00;;;;;;5033450;28;20512;-63
2022/01/14 06:39:27;;;;;;;30.50;15.50;;;0.10;1.00;;;;;;5033236;28;21086;-64
2022/01/14 06:41:54;;;;;;;32.40;16.13;;;0.10;1.00;;;;;;5033182;28;20485;-61
2022/01/14 06:44:20;;;;;;;35.27;17.63;;;0.10;1.00;;;;;;5033629;28;20457;-62
2022/01/14 06:46:48;;;;;;;31.43;16.47;;;0.10;1.00;;;;;;5032751;28;21000;-61
2022/01/14 06:49:15;;;;;;;32.03;16.00;;;0.10;1.00;;;;;;5033125;28;20453;-63
2022/01/14 06:51:42;;;;;;;33.87;17.83;;;0.10;1.00;;;;;;5032963;28;20446;-62
2022/01/14 06:54:08;;;;;;;32.43;17.50;;;0.00;1.00;;;;;;5033012;28;20465;-62
2022/01/14 06:56:38;;;;;;;34.87;18.03;;;0.00;1.00;;;;;;5033144;28;20450;-62
2022/01/14 06:59:05;;;;;;;32.40;17.47;;;0.10;1.00;;;;;;5034372;28;20480;-61
2022/01/14 07:01:31;;;;;;;37.03;18.67;;;0.00;1.00;;;;;;5033162;28;20479;-62
2022/01/14 07:03:59;;;;;;;34.37;20.00;;;0.00;1.00;;;;;;5032634;28;20904;-62
2022/01/14 07:06:26;;;;;;;48.17;20.17;;;0.00;1.00;;;;;;5032664;28;20809;-61
2022/01/14 07:08:53;;;;;;;40.13;19.30;;;0.00;1.00;;;;;;5033020;28;20457;-61
2022/01/14 07:11:25;;;;;;;36.43;19.73;;;0.00;1.00;;;;;;5032698;28;20473;-60
2022/01/14 07:13:51;;;;;;;38.17;19.27;;;0.00;1.00;;;;;;5032803;28;20466;-61
2022/01/14 07:16:18;;;;;;;33.07;18.67;;;0.00;1.00;;;;;;5031916;28;20951;-59
2022/01/14 07:18:48;;;;;;;35.53;18.23;;;0.10;1.00;;;;;;5032794;28;20861;-60
2022/01/14 07:21:16;;;;;;;34.60;19.50;;;0.10;1.00;;;;;;5032529;28;20537;-60
2022/01/14 07:23:43;;;;;;;36.33;17.93;;;0.10;1.00;;;;;;5032195;28;20846;-63
2022/01/14 07:26:09;;;;;;;28.10;17.13;;;0.20;1.00;;;;;;5032417;28;20457;-64
2022/01/14 07:28:36;;;;;;;42.37;18.93;;;0.20;1.00;;;;;;5032576;28;20453;-64
2022/01/14 07:31:03;;;;;;;38.07;17.83;;;0.10;1.00;;;;;;5033295;28;20480;-63
2022/01/14 07:33:29;;;;;;;40.67;18.37;;;0.10;1.00;;;;;;5032944;28;20453;-64
2022/01/14 07:35:56;;;;;;;32.73;16.10;;;0.00;1.00;;;;;;5031849;28;20458;-64
2022/01/14 07:38:24;;;;;;;34.60;19.10;;;0.00;1.00;;;;;;5032785;28;20513;-63
2022/01/14 07:40:51;;;;;;;37.03;19.13;;;0.10;1.00;;;;;;5031887;28;20870;-63
2022/01/14 07:43:19;;;;;;;36.30;18.53;;;0.10;1.00;;;;;;5032285;28;20460;-61
2022/01/14 07:45:47;;;;;;;38.00;19.07;;;0.20;1.00;;;;;;5031672;28;20931;-61
2022/01/14 07:48:13;;;;;;;35.63;20.30;;;0.20;1.00;;;;;;5032332;28;20535;-64
2022/01/14 07:50:40;;;;;;;37.13;19.60;;;0.20;1.00;;;;;;5032101;28;20470;-61
2022/01/14 07:53:07;;;;;;;36.60;19.37;;;0.30;1.00;;;;;;5032027;28;20450;-62
2022/01/14 07:55:35;;;;;;;38.27;18.93;;;0.40;1.00;;;;;;5031544;28;20454;-62
2022/01/14 07:58:02;;;;;;;39.93;19.77;;;0.40;1.00;;;;;;5031437;28;20462;-60
2022/01/14 08:00:30;;;;;;;37.20;19.97;;;0.40;1.00;;;;;;5031519;28;20477;-62
2022/01/14 08:02:58;;;;;;;38.23;20.20;;;0.40;1.00;;;;;;5031411;28;20478;-62
2022/01/14 08:05:26;;;;;;;37.60;19.20;;;0.40;1.00;;;;;;5031496;28;20507;-62
2022/01/14 08:07:55;;;;;;;35.47;19.60;;;0.40;1.00;;;;;;5031556;28;20450;-62
2022/01/14 08:10:22;;;;;;;46.13;20.67;;;0.40;1.00;;;;;;5031398;28;20568;-61
2022/01/14 08:12:50;;;;;;;37.43;20.03;;;0.40;1.00;;;;;;5031933;28;20447;-61
2022/01/14 08:15:17;;;;;;;41.53;19.60;;;0.50;1.00;;;;;;5031486;28;20465;-62
2022/01/14 08:17:44;;;;;;;47.27;21.73;;;0.60;1.00;;;;;;5030892;28;20445;-62
2022/01/14 08:20:12;;;;;;;38.30;19.97;;;0.60;1.00;;;;;;5031631;28;20994;-62
2022/01/14 08:22:38;;;;;;;40.03;19.43;;;0.60;1.00;;;;;;5031238;28;20530;-62
2022/01/14 08:25:06;;;;;;;43.63;20.13;;;0.70;1.00;;;;;;5031187;28;20798;-62
2022/01/14 08:27:33;;;;;;;48.47;21.07;;;0.70;1.00;;;;;;5030397;28;20458;-63
2022/01/14 08:30:01;;;;;;;45.17;23.73;;;0.80;1.00;;;;;;5030857;28;20475;-63
2022/01/14 08:32:28;;;;;;;44.70;22.97;;;0.80;1.00;;;;;;5031657;28;20531;-62
2022/01/14 08:34:54;;;;;;;51.60;23.97;;;0.90;1.00;;;;;;5031443;28;20453;-65
2022/01/14 08:37:21;;;;;;;41.90;22.20;;;0.90;1.00;;;;;;5030496;28;20451;-63
2022/01/14 08:39:48;;;;;;;58.93;23.80;;;0.90;1.00;;;;;;5030291;28;20480;-63
2022/01/14 08:42:15;;;;;;;60.87;26.10;;;0.90;1.00;;;;;;5030948;28;20848;-62
2022/01/14 08:44:43;;;;;;;52.50;23.50;;;1.00;1.00;;;;;;5031975;28;20662;-62
2022/01/14 08:47:11;;;;;;;53.90;24.07;;;1.00;1.00;;;;;;5030764;28;20842;-65
2022/01/14 08:49:39;;;;;;;62.80;26.47;;;1.10;1.00;;;;;;5030750;28;20475;-63
2022/01/14 08:52:07;;;;;;;67.97;26.27;;;1.10;1.00;;;;;;5030518;28;20450;-63
2022/01/14 08:54:34;;;;;;;72.23;23.77;;;1.20;1.00;;;;;;5030699;28;20463;-63
2022/01/14 08:57:02;;;;;;;63.57;23.60;;;1.20;1.00;;;;;;5029790;28;20503;-63
2022/01/14 08:59:29;;;;;;;66.60;27.13;;;1.30;1.00;;;;;;5030470;28;20480;-63
2022/01/14 09:01:56;;;;;;;67.07;26.03;;;1.30;1.00;;;;;;5030479;28;20499;-63
2022/01/14 09:04:24;;;;;;;77.13;29.03;;;1.30;1.00;;;;;;5030408;28;20806;-63
2022/01/14 09:06:51;;;;;;;102.40;27.00;;;1.40;1.00;;;;;;5030412;28;20452;-63
2022/01/14 09:09:18;;;;;;;78.10;29.37;;;1.40;1.00;;;;;;5030308;28;20460;-63
2022/01/14 09:11:45;;;;;;;78.37;26.57;;;1.50;1.00;;;;;;5030543;28;20444;-62
2022/01/14 09:14:11;;;;;;;92.30;27.37;;;1.50;1.60;;;;;;5031050;28;20472;-63
2022/01/14 09:16:38;;;;;;;119.93;28.30;;;1.40;1.50;;;;;;5029831;28;20463;-63
2022/01/14 09:19:05;;;;;;;105.27;29.37;;;1.30;1.00;;;;;;5030964;28;20449;-63
2022/01/14 09:21:33;;;;;;;145.13;27.47;;;1.40;2.90;;;;;;5030296;28;20448;-62
2022/01/14 09:24:04;;;;;;;170.30;27.83;;;1.40;3.50;;;;;;5030295;28;20901;-63
2022/01/14 09:26:31;;;;;;;155.63;26.87;;;1.40;4.60;;;;;;5029488;28;20455;-63
2022/01/14 09:28:58;;;;;;;130.33;25.90;;;1.40;6.70;;;;;;5030421;28;20465;-62
2022/01/14 09:31:25;;;;;;;153.00;25.50;;;1.40;7.50;;;;;;5030744;28;20472;-63
2022/01/14 09:33:51;;;;;;;107.60;25.93;;;1.40;9.90;;;;;;5030815;28;20865;-62
2022/01/14 09:36:18;;;;;;;124.87;26.70;;;1.50;12.30;;;;;;5029910;28;20461;-63
2022/01/14 09:38:46;;;;;;;178.03;27.93;;;1.50;15.70;;;;;;5029971;28;20877;-63
2022/01/14 09:41:14;;;;;;;166.73;28.20;;;1.60;17.60;;;;;;5030387;28;20498;-63
2022/01/14 09:43:41;;;;;;;106.03;26.17;;;1.60;18.50;;;;;;5030598;28;20485;-64
2022/01/14 09:46:10;;;;;;;140.20;27.83;;;1.70;20.60;;;;;;5030644;28;20449;-66
2022/01/14 09:48:38;;;;;;;132.27;28.43;;;1.70;21.40;;;;;;5030694;28;20539;-65
2022/01/14 09:51:05;;;;;;;128.73;27.93;;;1.80;23.10;;;;;;5031635;28;20492;-65
2022/01/14 09:53:33;;;;;;;187.97;31.50;;;1.90;25.00;;;;;;5035393;28;20445;-67
2022/01/14 09:56:02;;;;;;;199.80;31.73;;;1.70;23.10;;;;;;5035410;28;20456;-65
2022/01/14 09:58:35;;;;;;;157.97;30.30;;;1.80;24.00;;;;;;5034549;28;20487;-65
2022/01/14 10:01:07;;;;;;;139.63;29.90;;;1.70;24.20;;;;;;5034826;28;20471;-64
2022/01/14 10:03:34;;;;;;;165.10;31.10;;;1.70;26.20;;;;;;5050525;28;21210;-64
2022/01/14 10:06:01;;;;;;;205.10;31.90;;;1.60;27.00;;;;;;5033929;28;20452;-66
2022/01/14 10:08:29;;;;;;;158.07;32.10;;;1.60;27.70;;;;;;5034315;28;20452;-62
2022/01/14 10:10:59;;;;;;;192.20;30.23;;;1.60;30.00;;;;;;5034041;28;20568;-63
2022/01/14 10:13:29;;;;;;;200.90;30.77;;;1.60;35.30;;;;;;5033969;28;20522;-62
2022/01/14 10:16:01;;;;;;;156.67;29.10;;;1.70;39.20;;;;;;5033309;28;20539;-66
2022/01/14 10:18:28;;;;;;;155.50;29.37;;;1.70;42.50;;;;;;5034156;28;20522;-62
2022/01/14 10:21:01;;;;;;;217.77;32.27;;;1.80;45.90;;;;;;5033665;28;20842;-63
2022/01/14 10:23:40;;;;;;;170.83;32.50;;;1.90;49.20;;;;;;5033677;28;20542;-64
2022/01/14 10:26:06;;;;;;;141.73;31.33;;;1.90;51.10;;;;;;5033272;28;20543;-64
2022/01/14 10:28:34;;;;;;;134.90;26.37;;;1.90;51.30;;;;;;5033281;28;20994;-63
2022/01/14 10:31:01;;;;;;;141.47;28.73;;;1.80;51.40;;;;;;5033406;28;20851;-65
2022/01/14 10:33:30;;;;;;;143.27;27.57;;;1.80;51.80;;;;;;5033609;28;20539;-65
2022/01/14 10:35:57;;;;;;;142.03;26.43;;;1.80;53.40;;;;;;5033484;28;21093;-65
2022/01/14 10:38:25;;;;;;;170.80;28.73;;;1.90;55.00;;;;;;5033794;28;20456;-65
2022/01/14 10:40:54;;;;;;;197.80;31.07;;;1.90;55.30;;;;;;5033551;28;20473;-65
2022/01/14 10:43:23;;;;;;;175.33;26.97;;;1.90;56.20;;;;;;5033435;28;20484;-64
2022/01/14 10:45:52;;;;;;;119.47;26.10;;;1.90;57.70;;;;;;5033403;28;20460;-66
2022/01/14 10:48:29;;;;;;;169.57;27.67;;;1.90;58.10;;;;;;5033790;28;20976;-64
2022/01/14 10:50:58;;;;;;;119.37;26.97;;;1.90;60.70;;;;;;5033273;28;20479;-66
2022/01/14 10:53:28;;;;;;;111.10;25.37;;;1.90;62.60;;;;;;5033230;28;21012;-63
2022/01/14 10:56:00;;;;;;;145.03;27.17;;;1.90;63.30;;;;;;5032592;28;20461;-63
2022/01/14 10:58:31;;;;;;;120.57;25.17;;;2.00;65.60;;;;;;5033212;28;20461;-62
2022/01/14 11:01:00;;;;;;;127.83;26.70;;;2.00;67.80;;;;;;5033398;28;20568;-63
2022/01/14 11:03:36;;;;;;;121.50;26.27;;;2.00;73.80;;;;;;5031856;28;21011;-62
2022/01/14 11:06:17;;;;;;;135.00;26.47;;;2.00;74.90;;;;;;5032749;28;20475;-62
2022/01/14 11:08:44;;;;;;;156.40;24.30;;;2.10;77.40;;;;;;5033143;28;20461;-58
2022/01/14 11:11:12;;;;;;;139.20;25.83;;;2.20;80.10;;;;;;5032955;28;20553;-63
2022/01/14 11:13:39;;;;;;;93.27;22.33;;;2.20;82.30;;;;;;5032779;28;20457;-60
2022/01/14 11:16:07;;;;;;;104.43;22.30;;;2.20;83.20;;;;;;5032097;28;20453;-59
2022/01/14 11:18:34;;;;;;;105.87;22.73;;;2.20;84.00;;;;;;5032720;28;20453;-64
2022/01/14 11:23:45;;;;;;;79.00;21.20;;;2.20;86.10;;;;;;5033511;28;20882;-63
2022/01/14 11:26:17;;;;;;;91.97;22.33;;;2.30;88.50;;;;;;5033583;28;20518;-61
2022/01/14 11:28:45;;;;;;;98.67;22.57;;;2.40;90.30;;;;;;5032956;28;20456;-62
2022/01/14 11:31:31;;;;;;;100.13;23.67;;;2.40;91.00;;;;;;5032716;28;20495;-62
2022/01/14 11:34:00;;;;;;;87.10;23.07;;;2.60;92.50;;;;;;5032281;28;20453;-62
2022/01/14 11:36:51;;;;;;;94.13;23.57;;;2.60;92.80;;;;;;5032079;28;20452;-63
2022/01/14 11:39:19;;;;;;;92.63;21.97;;;2.50;92.70;;;;;;5032033;28;20453;-63
2022/01/14 11:41:55;;;;;;;102.77;22.03;;;2.60;92.80;;;;;;5032159;28;20996;-63
2022/01/14 11:44:52;;;;;;;90.13;23.43;;;2.70;93.70;;;;;;5032174;28;20484;-61
2022/01/14 11:48:04;;;;;;;104.40;23.73;;;2.80;95.10;;;;;;5031821;28;20448;-62
2022/01/14 11:50:46;;;;;;;101.30;24.03;;;2.90;95.70;;;;;;5032901;28;20461;-63
2022/01/14 11:53:35;;;;;;;89.57;21.73;;;3.00;96.40;;;;;;5032572;28;20433;-61
2022/01/14 11:56:02;;;;;;;88.20;23.67;;;3.00;96.70;;;;;;5031871;28;20939;-62
2022/01/14 11:58:29;;;;;;;80.13;22.83;;;3.10;96.80;;;;;;5031723;28;20449;-62
2022/01/14 12:00:56;;;;;;;75.37;22.57;;;3.10;96.80;;;;;;5031935;28;20971;-61
2022/01/14 12:03:30;;;;;;;89.23;22.93;;;3.00;96.60;;;;;;5032781;28;20681;-62
2022/01/14 12:05:59;;;;;;;81.90;23.13;;;2.90;95.80;;;;;;5032870;28;20464;-61
2022/01/14 12:08:28;;;;;;;81.17;23.30;;;3.00;96.40;;;;;;5031871;28;20823;-60
2022/01/14 12:10:58;;;;;;;78.33;23.57;;;3.10;96.90;;;;;;5031312;28;20472;-63
2022/01/14 12:13:40;;;;;;;79.73;22.73;;;3.20;97.70;;;;;;5032018;28;20453;-63
2022/01/14 12:16:10;;;;;;;77.13;23.23;;;3.10;97.20;;;;;;5032076;28;20206;-61
2022/01/14 12:19:17;;;;;;;72.57;21.17;;;3.10;97.00;;;;;;5033340;28;20939;-60
2022/01/14 12:22:01;;;;;;;75.73;22.00;;;3.10;96.90;;;;;;5031909;28;20449;-61
2022/01/14 12:24:35;;;;;;;67.47;21.97;;;3.30;97.70;;;;;;5031745;28;20576;-62
2022/01/14 12:27:40;;;;;;;82.40;23.13;;;3.20;97.40;;;;;;5030996;28;20453;-62
2022/01/14 12:30:14;;;;;;;81.17;23.87;;;3.20;97.00;;;;;;5032031;28;20472;-62
2022/01/14 12:32:43;;;;;;;80.33;23.53;;;3.10;95.70;;;;;;5031660;28;20539;-63
2022/01/14 12:35:13;;;;;;;75.97;22.87;;;3.20;95.80;;;;;;5030802;28;20453;-63
2022/01/14 12:37:43;;;;;;;84.37;24.13;;;3.20;95.80;;;;;;5031156;28;20453;-62
2022/01/14 12:40:13;;;;;;;75.53;22.47;;;3.30;95.70;;;;;;5030944;28;20478;-64
2022/01/14 12:42:44;;;;;;;90.93;25.30;;;3.20;94.50;;;;;;5032252;28;20485;-65
2022/01/14 12:45:28;;;;;;;75.73;23.30;;;3.30;94.60;;;;;;5032382;28;20214;-64
2022/01/14 12:48:05;;;;;;;78.70;23.13;;;3.40;93.70;;;;;;5031531;28;20554;-64
2022/01/14 12:50:32;;;;;;;82.37;23.00;;;3.30;92.20;;;;;;5030909;28;20481;-64
2022/01/14 12:53:00;;;;;;;78.83;22.63;;;3.40;91.10;;;;;;5031418;28;20503;-63
2022/01/14 12:55:26;;;;;;;72.97;23.53;;;3.40;89.50;;;;;;5031258;28;20865;-63
2022/01/14 12:57:57;;;;;;;74.00;23.27;;;3.50;88.10;;;;;;5030973;28;20202;-63
2022/01/14 13:00:23;;;;;;;83.80;22.70;;;3.50;85.10;;;;;;5031870;28;20881;-60
2022/01/14 13:02:50;;;;;;;69.83;21.53;;;3.50;81.80;;;;;;5031493;28;20222;-62
2022/01/14 13:05:20;;;;;;;70.10;22.17;;;3.50;80.90;;;;;;5030815;28;20885;-61
2022/01/14 13:07:47;;;;;;;76.87;22.73;;;3.50;77.90;;;;;;5031112;28;20226;-62